P/v Golden Gate — WDE5665 — position and weather

sailwx.info

Track history (hours):
 
Tides and Currents Weather Stations Pressure Air Temp Water Temp Dewpoint Dewpoint Depression Visibility Wind Speed Wind Dir Waves Ship Positions

P/v Golden Gate

Owner: San Francisco Bar Pilots Benevolent and Protective, San Francisco, CA. More information available from US FCC via Universal Licensing System and Coast Guard Vessel Documentation Center.

Last reported at 2016-Dec-02 21:33 UTC. Time now 2016-Dec-02 22:22 UTC.
Position N 37°48' W 122°24'.

Length 23 m; draft 2 m.

Type: Pilot. MMSI: 367370010.

Date/timePositionNaut miles runAvg speedWind from/ knotsBaromVisibWave heightAir tempDewpointWater temp
2016-Dec-02 21:33N 37°48' W 122°24'0 0.0
2016-Dec-02 20:34N 37°48' W 122°24'0 0.0
2016-Dec-02 19:33N 37°48' W 122°24'2 1.9
2016-Dec-02 18:34N 37°49' W 122°26'2 1.9
2016-Dec-02 17:33N 37°48' W 122°24'0 0.0
2016-Dec-02 16:33N 37°48' W 122°24'0 0.0
2016-Dec-02 15:33N 37°48' W 122°24'1 1.3
2016-Dec-02 14:34N 37°47' W 122°23'3 3.2
2016-Dec-02 13:33N 37°44' W 122°21'4 4.5
2016-Dec-02 12:33N 37°48' W 122°24'4 4.1
2016-Dec-02 11:34N 37°48' W 122°19'2 2.4
2016-Dec-02 10:34N 37°46' W 122°21'2 1.6
2016-Dec-02 09:34N 37°48' W 122°21'2 2.5
2016-Dec-02 08:33N 37°48' W 122°24'0 0.0
2016-Dec-02 07:33N 37°48' W 122°24'0 0.0
2016-Dec-02 06:33N 37°48' W 122°24'5 4.7
2016-Dec-02 05:34N 37°44' W 122°20'1212.1
2016-Dec-02 04:34N 37°47' W 122°35'1110.9
2016-Dec-02 03:34N 37°48' W 122°22'0 0.1
2016-Dec-02 02:34N 37°48' W 122°22'3 3.3
2016-Dec-02 01:33N 37°50' W 122°25'3 3.1
2016-Dec-02 00:33N 37°48' W 122°22'1 1.3
2016-Dec-01 23:33N 37°48' W 122°24'0 0.0
2016-Dec-01 22:33N 37°48' W 122°24'0 0.0
2016-Dec-01 21:33N 37°48' W 122°24'0 0.0
2016-Dec-01 20:33N 37°48' W 122°24'0 0.4
2016-Dec-01 19:34N 37°48' W 122°23'3 2.6
2016-Dec-01 18:33N 37°46' W 122°21'2 2.3
2016-Dec-01 17:34N 37°44' W 122°20'4 4.2
2016-Dec-01 16:33N 37°48' W 122°21'3 2.5
2016-Dec-01 15:33N 37°48' W 122°24'0 0.0
2016-Dec-01 14:33N 37°48' W 122°24'3 3.0
2016-Dec-01 13:33N 37°46' W 122°21'3 2.9
2016-Dec-01 12:34N 37°48' W 122°23'1 0.5
2016-Dec-01 11:33N 37°48' W 122°24'0 0.0
2016-Dec-01 10:34N 37°48' W 122°24'0 0.0
2016-Dec-01 09:34N 37°48' W 122°24'0 0.0
2016-Dec-01 08:33N 37°48' W 122°24'0 0.0
2016-Dec-01 07:33N 37°48' W 122°24'0 0.0
2016-Dec-01 06:33N 37°48' W 122°24'0 0.2
2016-Dec-01 05:34N 37°48' W 122°24'1 0.7
2016-Dec-01 04:33N 37°48' W 122°23'2 2.0
2016-Dec-01 03:33N 37°49' W 122°25'3 3.2
2016-Dec-01 02:34N 37°48' W 122°21'2 2.1
2016-Dec-01 01:33N 37°48' W 122°24'0 0.0
2016-Dec-01 00:33N 37°48' W 122°24'0 0.0
2016-Nov-30 23:33N 37°48' W 122°24'0 0.0
2016-Nov-30 22:33N 37°48' W 122°24'1 0.6
2016-Nov-30 21:33N 37°48' W 122°23'8 7.6
2016-Nov-30 20:31N 37°47' W 122°33'7 7.4
2016-Nov-30 19:33N 37°48' W 122°24'0 0.0
2016-Nov-30 18:34N 37°48' W 122°24'0 0.0
2016-Nov-30 17:33N 37°48' W 122°24'3 2.6
2016-Nov-30 16:33N 37°47' W 122°21'4 2.7
2016-Nov-30 15:10N 37°49' W 122°25'4 6.5
2016-Nov-30 14:33N 37°48' W 122°20'2 2.2
2016-Nov-30 13:34N 37°48' W 122°23'2 1.9
2016-Nov-30 12:33N 37°48' W 122°21'2 1.6
2016-Nov-30 11:34N 37°46' W 122°21'3 2.7
2016-Nov-30 10:33N 37°48' W 122°24'9 8.8
2016-Nov-30 09:33N 37°47' W 122°35'9 8.8
2016-Nov-30 08:33N 37°48' W 122°24'0 0.0
2016-Nov-30 07:33N 37°48' W 122°24'0 0.0
2016-Nov-30 06:33N 37°48' W 122°24'0 0.0
2016-Nov-30 05:33N 37°48' W 122°24'5 4.8
2016-Nov-30 04:33N 37°44' W 122°20'5 4.8
2016-Nov-30 03:34N 37°48' W 122°24'0 0.0
2016-Nov-30 02:34N 37°48' W 122°24'0 0.0
2016-Nov-30 01:33N 37°48' W 122°24'2 2.0
2016-Nov-30 00:33N 37°47' W 122°22'2 2.0
2016-Nov-29 23:33N 37°48' W 122°24'1 1.0
2016-Nov-29 22:33N 37°48' W 122°23'7 6.9
2016-Nov-29 21:33N 37°48' W 122°31'4 3.9
2016-Nov-29 20:33N 37°49' W 122°26'2 2.3
2016-Nov-29 19:33N 37°48' W 122°24'0 0.0
2016-Nov-29 18:32N 37°48' W 122°24'0 0.0
2016-Nov-29 17:29N 37°48' W 122°24'3 3.0
2016-Nov-29 16:33N 37°47' W 122°21'3 2.7
2016-Nov-29 15:34N 37°48' W 122°24'4 3.7
2016-Nov-29 14:33N 37°48' W 122°19'4 3.8
2016-Nov-29 13:33N 37°48' W 122°24'1 1.0
2016-Nov-29 12:34N 37°48' W 122°23'1 1.0
2016-Nov-29 11:33N 37°48' W 122°24'3 3.2
2016-Nov-29 10:33N 37°46' W 122°21'3 3.1
2016-Nov-29 09:33N 37°48' W 122°24'0 0.2
2016-Nov-29 08:33N 37°48' W 122°24'0 0.2
2016-Nov-29 07:33N 37°48' W 122°24'0 0.0
2016-Nov-29 06:33N 37°48' W 122°24'0 0.0
2016-Nov-29 05:33N 37°48' W 122°24'0 0.0
2016-Nov-29 04:33N 37°48' W 122°24'0 0.0
2016-Nov-29 03:33N 37°48' W 122°24'0 0.0
2016-Nov-29 02:33N 37°48' W 122°24'0 0.0
2016-Nov-29 01:33N 37°48' W 122°24'0 0.0
2016-Nov-29 00:33N 37°48' W 122°24'0 0.0
2016-Nov-28 23:33N 37°48' W 122°24'0 0.0
2016-Nov-28 22:33N 37°48' W 122°24'0 0.0
2016-Nov-28 21:33N 37°48' W 122°24'0 0.0
2016-Nov-28 20:33N 37°48' W 122°24'0 0.0
2016-Nov-28 19:34N 37°48' W 122°24'0 0.0
2016-Nov-28 18:33N 37°48' W 122°24'1 1.5
2016-Nov-28 17:33N 37°47' W 122°22'3 2.5
2016-Nov-28 16:29N 37°49' W 122°25'4 4.1
2016-Nov-28 15:33N 37°46' W 122°22'3 2.7
2016-Nov-28 14:33N 37°48' W 122°24'0 0.0
2016-Nov-28 13:34N 37°48' W 122°24'0 0.0
2016-Nov-28 12:33N 37°48' W 122°24'0 0.0
2016-Nov-28 11:33N 37°48' W 122°24'0 0.0
2016-Nov-28 10:29N 37°48' W 122°24'0 0.0
2016-Nov-28 09:34N 37°48' W 122°24'0 0.0
2016-Nov-28 08:33N 37°48' W 122°24'0 0.0
2016-Nov-28 07:33N 37°48' W 122°24'0 0.0
2016-Nov-28 06:33N 37°48' W 122°24'0 0.0
2016-Nov-28 05:33N 37°48' W 122°24'0 0.0
2016-Nov-28 04:33N 37°48' W 122°24'0 0.0
2016-Nov-28 03:33N 37°48' W 122°24'4 4.1
2016-Nov-28 02:33N 37°48' W 122°19'3 3.0
2016-Nov-28 01:33N 37°47' W 122°22'2 1.7
2016-Nov-28 00:33N 37°48' W 122°24'3 3.1
2016-Nov-27 23:33N 37°49' W 122°28'3 3.1
2016-Nov-27 22:33N 37°48' W 122°24'1 0.8
2016-Nov-27 21:33N 37°48' W 122°23'1 0.8
2016-Nov-27 20:33N 37°48' W 122°24'0 0.3
2016-Nov-27 19:33N 37°48' W 122°23'2 1.9
2016-Nov-27 18:34N 37°47' W 122°22'4 3.5
2016-Nov-27 17:33N 37°49' W 122°25'1 1.4
2016-Nov-27 16:33N 37°48' W 122°24'4 4.0
2016-Nov-27 15:34N 37°48' W 122°19'3 2.7
2016-Nov-27 14:33N 37°45' W 122°21'3 3.5
2016-Nov-27 13:33N 37°48' W 122°24'0 0.0
2016-Nov-27 12:33N 37°48' W 122°24'0 0.0
2016-Nov-27 11:33N 37°48' W 122°24'0 0.0
2016-Nov-27 10:33N 37°48' W 122°24'0 0.0
2016-Nov-27 09:33N 37°48' W 122°24'0 0.0
2016-Nov-27 08:33N 37°48' W 122°24'0 0.0
2016-Nov-27 07:33N 37°48' W 122°24'3 2.9
2016-Nov-27 06:33N 37°46' W 122°21'3 2.9
2016-Nov-27 05:33N 37°48' W 122°24'0 0.0
2016-Nov-27 04:33N 37°48' W 122°24'0 0.0
2016-Nov-27 03:33N 37°48' W 122°24'0 0.0
2016-Nov-27 02:33N 37°48' W 122°24'3 2.7
2016-Nov-27 01:34N 37°48' W 122°20'3 2.6
2016-Nov-27 00:33N 37°48' W 122°24'0 0.0
2016-Nov-26 23:33N 37°48' W 122°24'0 0.0
2016-Nov-26 22:33N 37°48' W 122°24'0 0.0
2016-Nov-26 21:33N 37°48' W 122°24'0 0.0
2016-Nov-26 20:33N 37°48' W 122°24'1 0.8
2016-Nov-26 19:33N 37°48' W 122°23'1 1.2
2016-Nov-26 18:34N 37°48' W 122°21'4 3.8
2016-Nov-26 17:34N 37°44' W 122°21'4 4.1
2016-Nov-26 16:33N 37°48' W 122°24'3 2.7
2016-Nov-26 15:34N 37°48' W 122°20'3 2.7
2016-Nov-26 14:33N 37°48' W 122°24'1 1.0
2016-Nov-26 13:33N 37°47' W 122°23'1 1.0
2016-Nov-26 12:33N 37°48' W 122°24'0 0.0
2016-Nov-26 11:33N 37°48' W 122°24'0 0.0
2016-Nov-26 10:33N 37°48' W 122°24'0 0.0
2016-Nov-26 09:33N 37°48' W 122°24'0 0.0
2016-Nov-26 08:33N 37°48' W 122°24'0 0.0
2016-Nov-26 07:33N 37°48' W 122°24'0 0.0
2016-Nov-26 06:33N 37°48' W 122°24'0 0.0
2016-Nov-26 05:33N 37°48' W 122°24'3 2.7
2016-Nov-26 04:33N 37°49' W 122°27'4 4.2
2016-Nov-26 03:34N 37°47' W 122°22'2 1.7
2016-Nov-26 02:33N 37°48' W 122°24'0 0.0
2016-Nov-26 01:33N 37°48' W 122°24'0 0.0
2016-Nov-26 00:33N 37°48' W 122°24'0 0.0
2016-Nov-25 23:33N 37°48' W 122°24'0 0.0
2016-Nov-25 22:33N 37°48' W 122°24'1312.3
2016-Nov-25 21:32N 37°46' W 122°39'1312.9
2016-Nov-25 20:33N 37°48' W 122°24'3 2.8
2016-Nov-25 19:33N 37°46' W 122°21'2 2.4
2016-Nov-25 18:34N 37°48' W 122°20'3 2.5
2016-Nov-25 17:33N 37°45' W 122°20'0 0.2
2016-Nov-25 16:33N 37°45' W 122°20'4 4.0
2016-Nov-25 15:33N 37°48' W 122°24'0 0.0
2016-Nov-25 14:33N 37°48' W 122°24'2 1.7
2016-Nov-25 13:34N 37°49' W 122°26'6 5.6
2016-Nov-25 12:33N 37°45' W 122°21'4 4.0
2016-Nov-25 11:33N 37°48' W 122°24'2 1.6
2016-Nov-25 10:34N 37°47' W 122°22'2 1.6
2016-Nov-25 09:33N 37°48' W 122°24'0 0.0
2016-Nov-25 08:32N 37°48' W 122°24'0 0.0
2016-Nov-25 07:33N 37°48' W 122°24'4 3.9
2016-Nov-25 06:33N 37°45' W 122°21'4 3.9
2016-Nov-25 05:34N 37°48' W 122°24'0 0.0
2016-Nov-25 04:33N 37°48' W 122°24'0 0.0
2016-Nov-25 03:34N 37°48' W 122°24'0 0.0
2016-Nov-25 02:33N 37°48' W 122°24'0 0.0
2016-Nov-25 01:34N 37°48' W 122°24'0 0.0
2016-Nov-25 00:34N 37°48' W 122°24'0 0.0
2016-Nov-24 23:34N 37°48' W 122°24'0 0.0
2016-Nov-24 22:33N 37°48' W 122°24'0 0.0
2016-Nov-24 21:33N 37°48' W 122°24'0 0.0
2016-Nov-24 20:33N 37°48' W 122°24'4 4.2
2016-Nov-24 19:33N 37°48' W 122°18'0 0.0
2016-Nov-24 18:34N 37°48' W 122°18'4 4.2
2016-Nov-24 17:33N 37°48' W 122°24'0 0.0
2016-Nov-24 16:33N 37°48' W 122°24'1 1.0
2016-Nov-24 15:34N 37°48' W 122°23'1 1.0
2016-Nov-24 14:33N 37°48' W 122°24'0 0.0
2016-Nov-24 13:33N 37°48' W 122°24'0 0.0
2016-Nov-24 12:33N 37°48' W 122°24'0 0.0
2016-Nov-24 11:33N 37°48' W 122°24'0 0.0
2016-Nov-24 10:33N 37°48' W 122°24'0 0.0
2016-Nov-24 09:32N 37°48' W 122°24'3 3.5
2016-Nov-24 08:34N 37°49' W 122°28'3 3.4
2016-Nov-24 07:33N 37°48' W 122°24'5 4.9
2016-Nov-24 06:34N 37°48' W 122°30'8 7.6
2016-Nov-24 05:34N 37°48' W 122°20'2 2.1
2016-Nov-24 04:34N 37°49' W 122°23'1 1.0
2016-Nov-24 03:33N 37°48' W 122°24'1 1.4
2016-Nov-24 02:34N 37°48' W 122°22'1 1.4
2016-Nov-24 01:33N 37°48' W 122°24'3 3.3
2016-Nov-24 00:34N 37°45' W 122°22'3 3.2
2016-Nov-23 23:33N 37°48' W 122°24'0 0.0
2016-Nov-23 22:33N 37°48' W 122°24'0 0.0
2016-Nov-23 21:34N 37°48' W 122°24'0 0.0
2016-Nov-23 20:33N 37°48' W 122°24'0 0.0
2016-Nov-23 19:33N 37°48' W 122°24'0 0.0
2016-Nov-23 18:33N 37°48' W 122°24'1 1.2
2016-Nov-23 17:33N 37°49' W 122°25'1 0.6
2016-Nov-23 16:34N 37°49' W 122°25'2 1.9
2016-Nov-23 15:34N 37°49' W 122°28'3 3.3
2016-Nov-23 14:33N 37°48' W 122°24'0 0.0
2016-Nov-23 13:33N 37°48' W 122°24'0 0.0
2016-Nov-23 12:33N 37°48' W 122°24'3 3.4
2016-Nov-23 11:34N 37°48' W 122°20'3 3.3
2016-Nov-23 10:33N 37°48' W 122°24'9 8.5
2016-Nov-23 09:30N 37°47' W 122°35'9 9.4
2016-Nov-23 08:33N 37°48' W 122°24'0 0.0
2016-Nov-23 07:33N 37°48' W 122°24'0 0.0
2016-Nov-23 06:33N 37°48' W 122°24'0 0.0
2016-Nov-23 03:33N 37°48' W 122°24'0 0.0
2016-Nov-23 02:33N 37°48' W 122°24'0 0.2
2016-Nov-23 00:34N 37°49' W 122°24'2 1.6
2016-Nov-22 23:34N 37°48' W 122°22'1 1.4
2016-Nov-22 22:33N 37°48' W 122°24'  
Track history (hours):
 
Tides and Currents Weather Stations Pressure Air Temp Water Temp Dewpoint Dewpoint Depression Visibility Wind Speed Wind Dir Waves Ship Positions

P/v Golden Gate

Owner: San Francisco Bar Pilots Benevolent and Protective, San Francisco, CA. More information available from US FCC via Universal Licensing System and Coast Guard Vessel Documentation Center.

Last reported at 2016-Dec-02 21:33 UTC. Time now 2016-Dec-02 22:22 UTC.
Position N 37°48' W 122°24'.

Length 23 m; draft 2 m.

Type: Pilot. MMSI: 367370010.

Date/timePositionNaut miles runAvg speedWind from/ knotsBaromVisibWave heightAir tempDewpointWater temp
2016-Dec-02 21:33N 37°48' W 122°24'0 0.0
2016-Dec-02 20:34N 37°48' W 122°24'0 0.0
2016-Dec-02 19:33N 37°48' W 122°24'2 1.9
2016-Dec-02 18:34N 37°49' W 122°26'2 1.9
2016-Dec-02 17:33N 37°48' W 122°24'0 0.0
2016-Dec-02 16:33N 37°48' W 122°24'0 0.0
2016-Dec-02 15:33N 37°48' W 122°24'1 1.3
2016-Dec-02 14:34N 37°47' W 122°23'3 3.2
2016-Dec-02 13:33N 37°44' W 122°21'4 4.5
2016-Dec-02 12:33N 37°48' W 122°24'4 4.1
2016-Dec-02 11:34N 37°48' W 122°19'2 2.4
2016-Dec-02 10:34N 37°46' W 122°21'2 1.6
2016-Dec-02 09:34N 37°48' W 122°21'2 2.5
2016-Dec-02 08:33N 37°48' W 122°24'0 0.0
2016-Dec-02 07:33N 37°48' W 122°24'0 0.0
2016-Dec-02 06:33N 37°48' W 122°24'5 4.7
2016-Dec-02 05:34N 37°44' W 122°20'1212.1
2016-Dec-02 04:34N 37°47' W 122°35'1110.9
2016-Dec-02 03:34N 37°48' W 122°22'0 0.1
2016-Dec-02 02:34N 37°48' W 122°22'3 3.3
2016-Dec-02 01:33N 37°50' W 122°25'3 3.1
2016-Dec-02 00:33N 37°48' W 122°22'1 1.3
2016-Dec-01 23:33N 37°48' W 122°24'0 0.0
2016-Dec-01 22:33N 37°48' W 122°24'0 0.0
2016-Dec-01 21:33N 37°48' W 122°24'0 0.0
2016-Dec-01 20:33N 37°48' W 122°24'0 0.4
2016-Dec-01 19:34N 37°48' W 122°23'3 2.6
2016-Dec-01 18:33N 37°46' W 122°21'2 2.3
2016-Dec-01 17:34N 37°44' W 122°20'4 4.2
2016-Dec-01 16:33N 37°48' W 122°21'3 2.5
2016-Dec-01 15:33N 37°48' W 122°24'0 0.0
2016-Dec-01 14:33N 37°48' W 122°24'3 3.0
2016-Dec-01 13:33N 37°46' W 122°21'3 2.9
2016-Dec-01 12:34N 37°48' W 122°23'1 0.5
2016-Dec-01 11:33N 37°48' W 122°24'0 0.0
2016-Dec-01 10:34N 37°48' W 122°24'0 0.0
2016-Dec-01 09:34N 37°48' W 122°24'0 0.0
2016-Dec-01 08:33N 37°48' W 122°24'0 0.0
2016-Dec-01 07:33N 37°48' W 122°24'0 0.0
2016-Dec-01 06:33N 37°48' W 122°24'0 0.2
2016-Dec-01 05:34N 37°48' W 122°24'1 0.7
2016-Dec-01 04:33N 37°48' W 122°23'2 2.0
2016-Dec-01 03:33N 37°49' W 122°25'3 3.2
2016-Dec-01 02:34N 37°48' W 122°21'2 2.1
2016-Dec-01 01:33N 37°48' W 122°24'0 0.0
2016-Dec-01 00:33N 37°48' W 122°24'0 0.0
2016-Nov-30 23:33N 37°48' W 122°24'0 0.0
2016-Nov-30 22:33N 37°48' W 122°24'1 0.6
2016-Nov-30 21:33N 37°48' W 122°23'8 7.6
2016-Nov-30 20:31N 37°47' W 122°33'7 7.4
2016-Nov-30 19:33N 37°48' W 122°24'0 0.0
2016-Nov-30 18:34N 37°48' W 122°24'0 0.0
2016-Nov-30 17:33N 37°48' W 122°24'3 2.6
2016-Nov-30 16:33N 37°47' W 122°21'4 2.7
2016-Nov-30 15:10N 37°49' W 122°25'4 6.5
2016-Nov-30 14:33N 37°48' W 122°20'2 2.2
2016-Nov-30 13:34N 37°48' W 122°23'2 1.9
2016-Nov-30 12:33N 37°48' W 122°21'2 1.6
2016-Nov-30 11:34N 37°46' W 122°21'3 2.7
2016-Nov-30 10:33N 37°48' W 122°24'9 8.8
2016-Nov-30 09:33N 37°47' W 122°35'9 8.8
2016-Nov-30 08:33N 37°48' W 122°24'0 0.0
2016-Nov-30 07:33N 37°48' W 122°24'0 0.0
2016-Nov-30 06:33N 37°48' W 122°24'0 0.0
2016-Nov-30 05:33N 37°48' W 122°24'5 4.8
2016-Nov-30 04:33N 37°44' W 122°20'5 4.8
2016-Nov-30 03:34N 37°48' W 122°24'0 0.0
2016-Nov-30 02:34N 37°48' W 122°24'0 0.0
2016-Nov-30 01:33N 37°48' W 122°24'2 2.0
2016-Nov-30 00:33N 37°47' W 122°22'2 2.0
2016-Nov-29 23:33N 37°48' W 122°24'1 1.0
2016-Nov-29 22:33N 37°48' W 122°23'7 6.9
2016-Nov-29 21:33N 37°48' W 122°31'4 3.9
2016-Nov-29 20:33N 37°49' W 122°26'2 2.3
2016-Nov-29 19:33N 37°48' W 122°24'0 0.0
2016-Nov-29 18:32N 37°48' W 122°24'0 0.0
2016-Nov-29 17:29N 37°48' W 122°24'3 3.0
2016-Nov-29 16:33N 37°47' W 122°21'3 2.7
2016-Nov-29 15:34N 37°48' W 122°24'4 3.7
2016-Nov-29 14:33N 37°48' W 122°19'4 3.8
2016-Nov-29 13:33N 37°48' W 122°24'1 1.0
2016-Nov-29 12:34N 37°48' W 122°23'1 1.0
2016-Nov-29 11:33N 37°48' W 122°24'3 3.2
2016-Nov-29 10:33N 37°46' W 122°21'3 3.1
2016-Nov-29 09:33N 37°48' W 122°24'0 0.2
2016-Nov-29 08:33N 37°48' W 122°24'0 0.2
2016-Nov-29 07:33N 37°48' W 122°24'0 0.0
2016-Nov-29 06:33N 37°48' W 122°24'0 0.0
2016-Nov-29 05:33N 37°48' W 122°24'0 0.0
2016-Nov-29 04:33N 37°48' W 122°24'0 0.0
2016-Nov-29 03:33N 37°48' W 122°24'0 0.0
2016-Nov-29 02:33N 37°48' W 122°24'0 0.0
2016-Nov-29 01:33N 37°48' W 122°24'0 0.0
2016-Nov-29 00:33N 37°48' W 122°24'0 0.0
2016-Nov-28 23:33N 37°48' W 122°24'0 0.0
2016-Nov-28 22:33N 37°48' W 122°24'0 0.0
2016-Nov-28 21:33N 37°48' W 122°24'0 0.0
2016-Nov-28 20:33N 37°48' W 122°24'0 0.0
2016-Nov-28 19:34N 37°48' W 122°24'0 0.0
2016-Nov-28 18:33N 37°48' W 122°24'1 1.5
2016-Nov-28 17:33N 37°47' W 122°22'3 2.5
2016-Nov-28 16:29N 37°49' W 122°25'4 4.1
2016-Nov-28 15:33N 37°46' W 122°22'3 2.7
2016-Nov-28 14:33N 37°48' W 122°24'0 0.0
2016-Nov-28 13:34N 37°48' W 122°24'0 0.0
2016-Nov-28 12:33N 37°48' W 122°24'0 0.0
2016-Nov-28 11:33N 37°48' W 122°24'0 0.0
2016-Nov-28 10:29N 37°48' W 122°24'0 0.0
2016-Nov-28 09:34N 37°48' W 122°24'0 0.0
2016-Nov-28 08:33N 37°48' W 122°24'0 0.0
2016-Nov-28 07:33N 37°48' W 122°24'0 0.0
2016-Nov-28 06:33N 37°48' W 122°24'0 0.0
2016-Nov-28 05:33N 37°48' W 122°24'0 0.0
2016-Nov-28 04:33N 37°48' W 122°24'0 0.0
2016-Nov-28 03:33N 37°48' W 122°24'4 4.1
2016-Nov-28 02:33N 37°48' W 122°19'3 3.0
2016-Nov-28 01:33N 37°47' W 122°22'2 1.7
2016-Nov-28 00:33N 37°48' W 122°24'3 3.1
2016-Nov-27 23:33N 37°49' W 122°28'3 3.1
2016-Nov-27 22:33N 37°48' W 122°24'1 0.8
2016-Nov-27 21:33N 37°48' W 122°23'1 0.8
2016-Nov-27 20:33N 37°48' W 122°24'0 0.3
2016-Nov-27 19:33N 37°48' W 122°23'2 1.9
2016-Nov-27 18:34N 37°47' W 122°22'4 3.5
2016-Nov-27 17:33N 37°49' W 122°25'1 1.4
2016-Nov-27 16:33N 37°48' W 122°24'4 4.0
2016-Nov-27 15:34N 37°48' W 122°19'3 2.7
2016-Nov-27 14:33N 37°45' W 122°21'3 3.5
2016-Nov-27 13:33N 37°48' W 122°24'0 0.0
2016-Nov-27 12:33N 37°48' W 122°24'0 0.0
2016-Nov-27 11:33N 37°48' W 122°24'0 0.0
2016-Nov-27 10:33N 37°48' W 122°24'0 0.0
2016-Nov-27 09:33N 37°48' W 122°24'0 0.0
2016-Nov-27 08:33N 37°48' W 122°24'0 0.0
2016-Nov-27 07:33N 37°48' W 122°24'3 2.9
2016-Nov-27 06:33N 37°46' W 122°21'3 2.9
2016-Nov-27 05:33N 37°48' W 122°24'0 0.0
2016-Nov-27 04:33N 37°48' W 122°24'0 0.0
2016-Nov-27 03:33N 37°48' W 122°24'0 0.0
2016-Nov-27 02:33N 37°48' W 122°24'3 2.7
2016-Nov-27 01:34N 37°48' W 122°20'3 2.6
2016-Nov-27 00:33N 37°48' W 122°24'0 0.0
2016-Nov-26 23:33N 37°48' W 122°24'0 0.0
2016-Nov-26 22:33N 37°48' W 122°24'0 0.0
2016-Nov-26 21:33N 37°48' W 122°24'0 0.0
2016-Nov-26 20:33N 37°48' W 122°24'1 0.8
2016-Nov-26 19:33N 37°48' W 122°23'1 1.2
2016-Nov-26 18:34N 37°48' W 122°21'4 3.8
2016-Nov-26 17:34N 37°44' W 122°21'4 4.1
2016-Nov-26 16:33N 37°48' W 122°24'3 2.7
2016-Nov-26 15:34N 37°48' W 122°20'3 2.7
2016-Nov-26 14:33N 37°48' W 122°24'1 1.0
2016-Nov-26 13:33N 37°47' W 122°23'1 1.0
2016-Nov-26 12:33N 37°48' W 122°24'0 0.0
2016-Nov-26 11:33N 37°48' W 122°24'0 0.0
2016-Nov-26 10:33N 37°48' W 122°24'0 0.0
2016-Nov-26 09:33N 37°48' W 122°24'0 0.0
2016-Nov-26 08:33N 37°48' W 122°24'0 0.0
2016-Nov-26 07:33N 37°48' W 122°24'0 0.0
2016-Nov-26 06:33N 37°48' W 122°24'0 0.0
2016-Nov-26 05:33N 37°48' W 122°24'3 2.7
2016-Nov-26 04:33N 37°49' W 122°27'4 4.2
2016-Nov-26 03:34N 37°47' W 122°22'2 1.7
2016-Nov-26 02:33N 37°48' W 122°24'0 0.0
2016-Nov-26 01:33N 37°48' W 122°24'0 0.0
2016-Nov-26 00:33N 37°48' W 122°24'0 0.0
2016-Nov-25 23:33N 37°48' W 122°24'0 0.0
2016-Nov-25 22:33N 37°48' W 122°24'1312.3
2016-Nov-25 21:32N 37°46' W 122°39'1312.9
2016-Nov-25 20:33N 37°48' W 122°24'3 2.8
2016-Nov-25 19:33N 37°46' W 122°21'2 2.4
2016-Nov-25 18:34N 37°48' W 122°20'3 2.5
2016-Nov-25 17:33N 37°45' W 122°20'0 0.2
2016-Nov-25 16:33N 37°45' W 122°20'4 4.0
2016-Nov-25 15:33N 37°48' W 122°24'0 0.0
2016-Nov-25 14:33N 37°48' W 122°24'2 1.7
2016-Nov-25 13:34N 37°49' W 122°26'6 5.6
2016-Nov-25 12:33N 37°45' W 122°21'4 4.0
2016-Nov-25 11:33N 37°48' W 122°24'2 1.6
2016-Nov-25 10:34N 37°47' W 122°22'2 1.6
2016-Nov-25 09:33N 37°48' W 122°24'0 0.0
2016-Nov-25 08:32N 37°48' W 122°24'0 0.0
2016-Nov-25 07:33N 37°48' W 122°24'4 3.9
2016-Nov-25 06:33N 37°45' W 122°21'4 3.9
2016-Nov-25 05:34N 37°48' W 122°24'0 0.0
2016-Nov-25 04:33N 37°48' W 122°24'0 0.0
2016-Nov-25 03:34N 37°48' W 122°24'0 0.0
2016-Nov-25 02:33N 37°48' W 122°24'0 0.0
2016-Nov-25 01:34N 37°48' W 122°24'0 0.0
2016-Nov-25 00:34N 37°48' W 122°24'0 0.0
2016-Nov-24 23:34N 37°48' W 122°24'0 0.0
2016-Nov-24 22:33N 37°48' W 122°24'0 0.0
2016-Nov-24 21:33N 37°48' W 122°24'0 0.0
2016-Nov-24 20:33N 37°48' W 122°24'4 4.2
2016-Nov-24 19:33N 37°48' W 122°18'0 0.0
2016-Nov-24 18:34N 37°48' W 122°18'4 4.2
2016-Nov-24 17:33N 37°48' W 122°24'0 0.0
2016-Nov-24 16:33N 37°48' W 122°24'1 1.0
2016-Nov-24 15:34N 37°48' W 122°23'1 1.0
2016-Nov-24 14:33N 37°48' W 122°24'0 0.0
2016-Nov-24 13:33N 37°48' W 122°24'0 0.0
2016-Nov-24 12:33N 37°48' W 122°24'0 0.0
2016-Nov-24 11:33N 37°48' W 122°24'0 0.0
2016-Nov-24 10:33N 37°48' W 122°24'0 0.0
2016-Nov-24 09:32N 37°48' W 122°24'3 3.5
2016-Nov-24 08:34N 37°49' W 122°28'3 3.4
2016-Nov-24 07:33N 37°48' W 122°24'5 4.9
2016-Nov-24 06:34N 37°48' W 122°30'8 7.6
2016-Nov-24 05:34N 37°48' W 122°20'2 2.1
2016-Nov-24 04:34N 37°49' W 122°23'1 1.0
2016-Nov-24 03:33N 37°48' W 122°24'1 1.4
2016-Nov-24 02:34N 37°48' W 122°22'1 1.4
2016-Nov-24 01:33N 37°48' W 122°24'3 3.3
2016-Nov-24 00:34N 37°45' W 122°22'3 3.2
2016-Nov-23 23:33N 37°48' W 122°24'0 0.0
2016-Nov-23 22:33N 37°48' W 122°24'0 0.0
2016-Nov-23 21:34N 37°48' W 122°24'0 0.0
2016-Nov-23 20:33N 37°48' W 122°24'0 0.0
2016-Nov-23 19:33N 37°48' W 122°24'0 0.0
2016-Nov-23 18:33N 37°48' W 122°24'1 1.2
2016-Nov-23 17:33N 37°49' W 122°25'1 0.6
2016-Nov-23 16:34N 37°49' W 122°25'2 1.9
2016-Nov-23 15:34N 37°49' W 122°28'3 3.3
2016-Nov-23 14:33N 37°48' W 122°24'0 0.0
2016-Nov-23 13:33N 37°48' W 122°24'0 0.0
2016-Nov-23 12:33N 37°48' W 122°24'3 3.4
2016-Nov-23 11:34N 37°48' W 122°20'3 3.3
2016-Nov-23 10:33N 37°48' W 122°24'9 8.5
2016-Nov-23 09:30N 37°47' W 122°35'9 9.4
2016-Nov-23 08:33N 37°48' W 122°24'0 0.0
2016-Nov-23 07:33N 37°48' W 122°24'0 0.0
2016-Nov-23 06:33N 37°48' W 122°24'0 0.0
2016-Nov-23 03:33N 37°48' W 122°24'0 0.0
2016-Nov-23 02:33N 37°48' W 122°24'0 0.2
2016-Nov-23 00:34N 37°49' W 122°24'2 1.6
2016-Nov-22 23:34N 37°48' W 122°22'1 1.4
2016-Nov-22 22:33N 37°48' W 122°24'  

Dump ship's entire track history